createdAt,value
2023-02-08T00:00:02.527Z,3.00
2023-02-08T00:02:35.677Z,2.90
2023-02-08T00:05:03.916Z,2.80
2023-02-08T00:07:32.111Z,2.70
2023-02-08T00:10:00.193Z,2.70
2023-02-08T00:12:29.673Z,2.60
2023-02-08T00:14:57.680Z,2.60
2023-02-08T00:17:25.821Z,2.50
2023-02-08T00:19:54.190Z,2.40
2023-02-08T00:22:22.225Z,2.50
2023-02-08T00:24:51.033Z,2.40
2023-02-08T00:27:19.109Z,2.40
2023-02-08T00:29:48.498Z,2.40
2023-02-08T00:32:16.486Z,2.30
2023-02-08T00:34:45.042Z,2.20
2023-02-08T00:37:13.078Z,2.20
2023-02-08T00:39:41.679Z,2.10
2023-02-08T00:42:09.683Z,2.10
2023-02-08T00:44:37.740Z,2.00
2023-02-08T00:47:07.148Z,2.00
2023-02-08T00:49:35.227Z,1.90
2023-02-08T00:52:03.287Z,1.90
2023-02-08T00:54:32.023Z,1.80
2023-02-08T00:57:00.118Z,1.80
2023-02-08T00:59:29.380Z,1.90
2023-02-08T01:01:57.474Z,2.00
2023-02-08T01:04:27.466Z,2.00
2023-02-08T01:06:55.617Z,2.10
2023-02-08T01:09:23.961Z,2.20
2023-02-08T01:11:51.974Z,2.30
2023-02-08T01:14:20.121Z,2.30
2023-02-08T01:16:48.132Z,2.20
2023-02-08T01:19:16.328Z,2.20
2023-02-08T01:21:46.058Z,2.20
2023-02-08T01:24:14.082Z,2.20
2023-02-08T01:26:42.229Z,2.20
2023-02-08T01:29:10.361Z,2.20
2023-02-08T01:31:41.133Z,2.10
2023-02-08T01:34:10.018Z,2.00
2023-02-08T01:36:38.444Z,2.00
2023-02-08T01:39:11.871Z,2.00
2023-02-08T01:41:40.489Z,2.00
2023-02-08T01:44:29.345Z,2.00
2023-02-08T01:46:57.466Z,2.00
2023-02-08T01:49:26.920Z,1.90
2023-02-08T01:51:56.589Z,1.90
2023-02-08T01:54:27.046Z,1.90
2023-02-08T01:56:55.101Z,1.70
2023-02-08T01:59:26.516Z,1.70
2023-02-08T02:01:55.441Z,1.60
2023-02-08T02:04:23.844Z,1.50
2023-02-08T02:06:53.078Z,1.40
2023-02-08T02:09:24.288Z,1.30
2023-02-08T02:11:55.268Z,1.30
2023-02-08T02:14:23.541Z,1.10
2023-02-08T02:16:51.491Z,1.30
2023-02-08T02:19:25.340Z,1.00
2023-02-08T02:21:58.818Z,0.90
2023-02-08T02:24:42.198Z,0.90
2023-02-08T02:27:25.981Z,0.90
2023-02-08T02:30:12.795Z,0.90
2023-02-08T02:32:48.897Z,0.90
2023-02-08T02:35:21.259Z,0.90
2023-02-08T02:37:55.563Z,0.90
2023-02-08T02:40:27.847Z,0.90
2023-02-08T02:43:19.699Z,0.90
2023-02-08T02:45:50.848Z,0.80
2023-02-08T02:48:23.862Z,0.70
2023-02-08T02:50:54.367Z,0.70
2023-02-08T02:53:26.361Z,0.70
2023-02-08T02:55:57.476Z,0.70
2023-02-08T02:58:26.033Z,0.90
2023-02-08T03:00:54.974Z,1.00
2023-02-08T03:03:25.597Z,1.00
2023-02-08T03:05:55.478Z,1.20
2023-02-08T03:08:38.072Z,1.20
2023-02-08T03:11:16.891Z,1.30
2023-02-08T03:13:53.896Z,1.30
2023-02-08T03:16:33.908Z,1.20
2023-02-08T03:19:08.963Z,1.20
2023-02-08T03:21:41.460Z,1.20
2023-02-08T03:24:18.768Z,1.00
2023-02-08T03:26:51.578Z,1.00
2023-02-08T03:29:25.640Z,1.00
2023-02-08T03:31:56.625Z,1.00
2023-02-08T03:34:30.150Z,1.10
2023-02-08T03:37:01.066Z,1.10
2023-02-08T03:39:30.209Z,1.20
2023-02-08T03:42:00.209Z,1.10
2023-02-08T03:44:30.209Z,0.90
2023-02-08T03:47:02.681Z,0.70
2023-02-08T03:49:33.244Z,0.70
2023-02-08T03:52:02.596Z,0.60
2023-02-08T03:54:33.006Z,0.70
2023-02-08T03:57:05.468Z,0.60
2023-02-08T03:59:35.567Z,0.40
2023-02-08T04:02:05.113Z,0.30
2023-02-08T04:04:36.154Z,0.20
2023-02-08T04:07:04.411Z,0.10
2023-02-08T04:09:32.407Z,0.00
2023-02-08T04:12:00.596Z,0.00
2023-02-08T04:14:28.602Z,0.00
2023-02-08T04:16:56.566Z,-0.10
2023-02-08T04:19:24.597Z,-0.10
2023-02-08T04:21:54.219Z,-0.10
2023-02-08T04:24:22.194Z,-0.10
2023-02-08T04:26:50.224Z,-0.10
2023-02-08T04:29:18.251Z,-0.10
2023-02-08T04:31:46.399Z,-0.20
2023-02-08T04:34:14.520Z,-0.20
2023-02-08T04:36:43.027Z,-0.20
2023-02-08T04:39:12.377Z,-0.30
2023-02-08T04:41:40.349Z,-0.30
2023-02-08T04:44:08.336Z,-0.40
2023-02-08T04:46:36.519Z,-0.40
2023-02-08T04:49:04.463Z,-0.30
2023-02-08T04:51:32.392Z,-0.40
2023-02-08T04:54:00.441Z,-0.40
2023-02-08T04:56:30.060Z,-0.30
2023-02-08T04:58:58.125Z,-0.20
2023-02-08T05:01:26.105Z,-0.20
2023-02-08T05:03:54.194Z,-0.10
2023-02-08T05:06:22.275Z,-0.10
2023-02-08T05:08:50.270Z,-0.10
2023-02-08T05:11:20.915Z,0.00
2023-02-08T05:13:50.432Z,-0.10
2023-02-08T05:16:18.912Z,-0.30
2023-02-08T05:18:46.964Z,-0.20
2023-02-08T05:21:15.037Z,-0.20
2023-02-08T05:23:44.827Z,-0.30
2023-02-08T05:26:15.162Z,-0.30
2023-02-08T05:28:43.110Z,-0.30
2023-02-08T05:31:13.498Z,-0.30
2023-02-08T05:33:41.577Z,-0.50
2023-02-08T05:36:10.128Z,-0.50
2023-02-08T05:38:38.672Z,-0.50
2023-02-08T05:41:06.689Z,-0.50
2023-02-08T05:43:34.892Z,-0.50
2023-02-08T05:46:03.047Z,-0.50
2023-02-08T05:48:32.435Z,-0.40
2023-02-08T05:51:00.589Z,-0.40
2023-02-08T05:53:28.775Z,-0.30
2023-02-08T05:55:58.054Z,-0.30
2023-02-08T05:58:26.632Z,-0.30
2023-02-08T06:00:54.833Z,-0.40
2023-02-08T06:03:23.064Z,-0.40
2023-02-08T06:05:52.505Z,-0.40
2023-02-08T06:08:20.735Z,-0.40
2023-02-08T06:10:49.799Z,-0.30
2023-02-08T06:13:18.011Z,-0.20
2023-02-08T06:15:46.333Z,-0.10
2023-02-08T06:18:14.328Z,-0.10
2023-02-08T06:20:42.554Z,0.00
2023-02-08T06:23:12.302Z,0.00
2023-02-08T06:25:40.285Z,0.10
2023-02-08T06:28:10.710Z,0.10
2023-02-08T06:30:39.649Z,0.10
2023-02-08T06:33:07.830Z,0.10
2023-02-08T06:35:35.820Z,0.20
2023-02-08T06:38:03.887Z,0.20
2023-02-08T06:40:33.290Z,0.10
2023-02-08T06:43:01.330Z,-0.10
2023-02-08T06:45:29.470Z,-0.20
2023-02-08T06:47:57.543Z,-0.30
2023-02-08T06:50:27.017Z,-0.40
2023-02-08T06:52:55.356Z,-0.50
2023-02-08T06:55:23.425Z,-0.50
2023-02-08T06:57:55.501Z,-0.50
2023-02-08T07:00:24.105Z,-0.50
2023-02-08T07:02:52.607Z,-0.50
2023-02-08T07:05:20.640Z,-0.50
2023-02-08T07:07:49.464Z,-0.40
2023-02-08T07:10:17.532Z,-0.40
2023-02-08T07:12:45.585Z,-0.50
2023-02-08T07:15:15.275Z,-0.70
2023-02-08T07:17:43.272Z,-0.60
2023-02-08T07:20:12.348Z,-0.70
2023-02-08T07:22:41.090Z,-0.80
2023-02-08T07:25:09.625Z,-0.90
2023-02-08T07:27:37.744Z,-0.80
2023-02-08T07:30:08.144Z,-0.80
2023-02-08T07:32:37.589Z,-0.80
2023-02-08T07:35:05.936Z,-0.70
2023-02-08T07:37:33.964Z,-0.70
2023-02-08T07:40:02.090Z,-0.60
2023-02-08T07:42:30.172Z,-0.60
2023-02-08T07:45:14.378Z,-0.50
2023-02-08T07:47:43.861Z,-0.50
2023-02-08T07:50:11.929Z,-0.50
2023-02-08T07:52:41.197Z,-0.50
2023-02-08T07:55:09.962Z,-0.50
2023-02-08T07:57:38.201Z,-0.50
2023-02-08T08:00:06.953Z,-0.50
2023-02-08T08:02:40.631Z,-0.40
2023-02-08T08:05:10.577Z,-0.40
2023-02-08T08:07:39.069Z,-0.30
2023-02-08T08:10:07.568Z,-0.20
2023-02-08T08:12:35.616Z,-0.20
2023-02-08T08:15:03.628Z,-0.20
2023-02-08T08:17:31.883Z,-0.20
2023-02-08T08:19:59.958Z,0.00
2023-02-08T08:22:29.976Z,0.10
2023-02-08T08:24:58.846Z,0.20
2023-02-08T08:27:27.037Z,0.40
2023-02-08T08:29:55.087Z,0.50
2023-02-08T08:32:23.825Z,0.70
2023-02-08T08:34:51.998Z,0.90
2023-02-08T08:37:20.081Z,1.40
2023-02-08T08:39:49.490Z,1.40
2023-02-08T08:42:18.271Z,1.60
2023-02-08T08:44:46.377Z,1.80
2023-02-08T08:47:14.604Z,2.00
2023-02-08T08:49:43.884Z,2.10
2023-02-08T08:52:12.330Z,2.30
2023-02-08T08:54:40.535Z,2.50
2023-02-08T08:57:10.124Z,2.70
2023-02-08T08:59:38.178Z,2.80
2023-02-08T09:02:06.326Z,2.90
2023-02-08T09:04:35.003Z,3.00
2023-02-08T09:07:03.087Z,3.20
2023-02-08T09:09:31.191Z,3.20
2023-02-08T09:11:59.242Z,3.30
2023-02-08T09:14:28.943Z,3.50
2023-02-08T09:16:57.066Z,3.60
2023-02-08T09:19:25.220Z,3.70
2023-02-08T09:21:53.221Z,3.80
2023-02-08T09:24:21.340Z,3.90
2023-02-08T09:26:49.459Z,4.00
2023-02-08T09:29:17.423Z,4.00
2023-02-08T09:31:47.125Z,4.10
2023-02-08T09:34:15.193Z,4.20
2023-02-08T09:36:43.281Z,4.30
2023-02-08T09:39:12.781Z,4.30
2023-02-08T09:41:50.460Z,4.40
2023-02-08T09:44:24.568Z,4.40
2023-02-08T09:46:57.429Z,4.50
2023-02-08T09:49:27.258Z,4.60
2023-02-08T09:51:58.021Z,4.70
2023-02-08T09:54:29.357Z,5.00
2023-02-08T09:56:58.183Z,4.90
2023-02-08T09:59:28.847Z,4.80
2023-02-08T10:02:01.177Z,4.70
2023-02-08T10:04:31.542Z,4.70
2023-02-08T10:06:59.617Z,4.80
2023-02-08T10:09:28.447Z,4.80
2023-02-08T10:12:03.108Z,4.80
2023-02-08T10:14:41.456Z,5.00
2023-02-08T10:17:21.088Z,5.20
2023-02-08T10:19:55.510Z,5.30
2023-02-08T10:22:27.801Z,5.20
2023-02-08T10:25:02.584Z,5.40
2023-02-08T10:27:37.638Z,5.50
2023-02-08T10:30:14.096Z,5.50
2023-02-08T10:32:51.381Z,5.60
2023-02-08T10:35:25.148Z,5.80
2023-02-08T10:37:53.799Z,5.90
2023-02-08T10:40:31.279Z,5.90
2023-02-08T10:43:04.180Z,6.00
2023-02-08T10:45:37.355Z,6.10
2023-02-08T10:48:10.842Z,6.00
2023-02-08T10:50:40.359Z,6.10
2023-02-08T10:53:15.404Z,6.00
2023-02-08T10:55:44.773Z,6.20
2023-02-08T10:58:15.664Z,6.30
2023-02-08T11:00:44.478Z,6.40
2023-02-08T11:03:20.042Z,6.40
2023-02-08T11:05:48.241Z,6.60
2023-02-08T11:08:19.477Z,6.60
2023-02-08T11:10:56.426Z,6.80
2023-02-08T11:13:25.586Z,6.80
2023-02-08T11:15:56.520Z,6.90
2023-02-08T11:18:27.423Z,6.80
2023-02-08T11:20:57.142Z,7.00
2023-02-08T11:23:27.112Z,7.00
2023-02-08T11:25:55.642Z,7.10
2023-02-08T11:28:28.404Z,7.20
2023-02-08T11:30:57.222Z,7.20
2023-02-08T11:33:27.546Z,7.10
2023-02-08T11:35:57.074Z,7.10
2023-02-08T11:38:28.192Z,7.30
2023-02-08T11:40:57.738Z,7.30
2023-02-08T11:43:26.930Z,7.50
2023-02-08T11:45:56.772Z,7.50
2023-02-08T11:48:30.201Z,7.60
2023-02-08T11:50:59.825Z,7.60
2023-02-08T11:53:31.250Z,7.60
2023-02-08T11:56:03.662Z,7.60
2023-02-08T11:58:31.895Z,7.60
2023-02-08T12:01:01.441Z,7.50
2023-02-08T12:03:33.642Z,7.50
2023-02-08T12:06:06.799Z,7.50
2023-02-08T12:08:39.510Z,7.60
2023-02-08T12:11:12.428Z,7.80
2023-02-08T12:13:45.424Z,8.10
2023-02-08T12:16:18.256Z,8.30
2023-02-08T12:18:55.184Z,8.50
2023-02-08T12:21:26.198Z,8.60
2023-02-08T12:23:55.869Z,8.60
2023-02-08T12:26:35.579Z,8.70
2023-02-08T12:29:11.404Z,8.60
2023-02-08T12:31:46.464Z,8.50
2023-02-08T12:34:18.812Z,8.70
2023-02-08T12:37:22.408Z,8.90
2023-02-08T12:40:12.969Z,8.90
2023-02-08T12:42:46.160Z,9.10
2023-02-08T12:45:22.184Z,9.30
2023-02-08T12:48:04.376Z,9.40
2023-02-08T12:50:37.936Z,9.40
2023-02-08T12:53:09.674Z,9.40
2023-02-08T12:55:38.121Z,9.70
2023-02-08T12:58:12.844Z,9.80
2023-02-08T13:00:42.627Z,9.70
2023-02-08T13:03:16.967Z,9.60
2023-02-08T13:06:01.257Z,9.40
2023-02-08T13:08:31.192Z,9.40
2023-02-08T13:11:14.093Z,9.50
2023-02-08T13:13:58.503Z,9.60
2023-02-08T13:16:29.402Z,9.70
2023-02-08T13:19:02.514Z,9.70
2023-02-08T13:21:37.997Z,9.50
2023-02-08T13:24:07.884Z,9.50
2023-02-08T13:26:36.685Z,9.50
2023-02-08T13:29:04.807Z,9.40
2023-02-08T13:31:34.462Z,9.60
2023-02-08T13:34:08.169Z,9.80
2023-02-08T13:36:38.725Z,9.90
2023-02-08T13:39:08.908Z,10.00
2023-02-08T13:41:37.999Z,10.10
2023-02-08T13:44:07.492Z,10.00
2023-02-08T13:46:37.266Z,10.10
2023-02-08T13:49:05.595Z,10.30
2023-02-08T13:51:58.558Z,10.50
2023-02-08T13:54:28.185Z,10.50
2023-02-08T13:56:56.412Z,10.30
2023-02-08T13:59:35.218Z,10.00
2023-02-08T14:02:36.817Z,10.00
2023-02-08T14:05:25.601Z,9.80
2023-02-08T14:07:58.186Z,9.70
2023-02-08T14:10:32.037Z,9.70
2023-02-08T14:13:02.607Z,9.70
2023-02-08T14:15:36.719Z,9.70
2023-02-08T14:18:06.075Z,9.80
2023-02-08T14:20:36.284Z,9.90
2023-02-08T14:23:05.296Z,10.00
2023-02-08T14:25:43.057Z,10.20
2023-02-08T14:28:24.653Z,10.30
2023-02-08T14:30:54.216Z,10.40
2023-02-08T14:33:24.198Z,10.40
2023-02-08T14:35:54.112Z,10.40
2023-02-08T14:38:55.561Z,10.30
2023-02-08T14:41:42.305Z,10.30
2023-02-08T14:44:34.510Z,10.30
2023-02-08T14:47:04.204Z,10.30
2023-02-08T14:49:36.794Z,10.20
2023-02-08T14:52:06.346Z,9.90
2023-02-08T14:54:37.200Z,10.00
2023-02-08T14:57:07.604Z,10.00
2023-02-08T14:59:36.483Z,9.80
2023-02-08T15:02:12.298Z,9.80
2023-02-08T15:04:43.221Z,9.70
2023-02-08T15:07:33.537Z,9.70
2023-02-08T15:10:03.728Z,9.50
2023-02-08T15:12:33.755Z,9.40
2023-02-08T15:15:03.525Z,9.40
2023-02-08T15:17:34.789Z,9.40
2023-02-08T15:20:04.253Z,9.30
2023-02-08T15:22:33.883Z,9.20
2023-02-08T15:25:05.741Z,9.10
2023-02-08T15:27:34.768Z,9.10
2023-02-08T15:30:03.006Z,9.10
2023-02-08T15:32:31.168Z,9.10
2023-02-08T15:35:01.861Z,9.20
2023-02-08T15:37:31.733Z,9.00
2023-02-08T15:40:00.395Z,8.90
2023-02-08T15:42:30.157Z,8.90
2023-02-08T15:45:00.565Z,8.80
2023-02-08T15:47:30.104Z,8.70
2023-02-08T15:49:58.906Z,8.60
2023-02-08T15:52:29.956Z,8.80
2023-02-08T15:54:58.203Z,8.90
2023-02-08T15:57:33.351Z,9.00
2023-02-08T16:00:02.045Z,9.00
2023-02-08T16:02:31.089Z,8.90
2023-02-08T16:05:00.183Z,8.80
2023-02-08T16:07:32.286Z,8.50
2023-02-08T16:10:00.641Z,8.10
2023-02-08T16:12:29.414Z,7.80
2023-02-08T16:14:57.624Z,7.90
2023-02-08T16:17:39.365Z,7.80
2023-02-08T16:20:23.182Z,7.80
2023-02-08T16:22:57.309Z,7.70
2023-02-08T16:25:34.148Z,7.70
2023-02-08T16:28:02.736Z,7.80
2023-02-08T16:30:30.990Z,7.70
2023-02-08T16:32:59.282Z,7.80
2023-02-08T16:35:29.494Z,7.60
2023-02-08T16:38:00.784Z,7.50
2023-02-08T16:40:51.341Z,7.40
2023-02-08T16:43:21.579Z,7.20
2023-02-08T16:46:04.780Z,7.00
2023-02-08T16:48:36.011Z,7.00
2023-02-08T16:51:06.096Z,7.00
2023-02-08T16:53:42.352Z,7.00
2023-02-08T16:56:11.458Z,6.90
2023-02-08T16:58:39.996Z,7.00
2023-02-08T17:01:11.246Z,7.00
2023-02-08T17:03:39.375Z,6.90
2023-02-08T17:06:08.294Z,6.80
2023-02-08T17:08:37.687Z,6.70
2023-02-08T17:11:06.010Z,6.80
2023-02-08T17:13:34.062Z,6.80
2023-02-08T17:16:02.221Z,6.60
2023-02-08T17:18:33.229Z,6.60
2023-02-08T17:21:02.782Z,6.60
2023-02-08T17:23:31.024Z,6.60
2023-02-08T17:26:00.678Z,6.60
2023-02-08T17:28:28.789Z,6.50
2023-02-08T17:30:56.979Z,6.40
2023-02-08T17:33:26.334Z,6.40
2023-02-08T17:35:54.991Z,6.50
2023-02-08T17:38:23.143Z,6.40
2023-02-08T17:40:51.304Z,6.10
2023-02-08T17:43:20.874Z,6.10
2023-02-08T17:45:49.202Z,6.10
2023-02-08T17:48:17.434Z,5.90
2023-02-08T17:50:50.854Z,6.00
2023-02-08T17:53:19.327Z,6.20
2023-02-08T17:55:47.579Z,6.30
2023-02-08T17:58:15.829Z,6.40
2023-02-08T18:00:45.434Z,6.50
2023-02-08T18:03:13.849Z,6.50
2023-02-08T18:05:42.431Z,6.40
2023-02-08T18:08:10.838Z,6.30
2023-02-08T18:10:39.033Z,6.50
2023-02-08T18:13:07.124Z,6.50
2023-02-08T18:15:35.254Z,6.60
2023-02-08T18:18:05.014Z,6.50
2023-02-08T18:20:33.158Z,6.50
2023-02-08T18:23:01.510Z,6.50
2023-02-08T18:25:30.095Z,6.40
2023-02-08T18:27:58.244Z,6.40
2023-02-08T18:30:27.962Z,6.50
2023-02-08T18:32:56.255Z,6.40
2023-02-08T18:35:26.541Z,6.50
2023-02-08T18:37:54.640Z,6.30
2023-02-08T18:40:23.078Z,6.10
2023-02-08T18:42:51.123Z,6.20
2023-02-08T18:45:19.180Z,6.20
2023-02-08T18:47:47.317Z,6.20
2023-02-08T18:50:17.343Z,6.10
2023-02-08T18:52:46.780Z,6.10
2023-02-08T18:55:14.965Z,6.00
2023-02-08T18:57:43.188Z,5.70
2023-02-08T19:00:11.992Z,5.50
2023-02-08T19:02:40.013Z,5.50
2023-02-08T19:05:08.479Z,5.60
2023-02-08T19:07:36.877Z,5.60
2023-02-08T19:10:07.168Z,5.70
2023-02-08T19:12:36.687Z,5.70
2023-02-08T19:15:04.847Z,5.70
2023-02-08T19:17:32.975Z,5.70
2023-02-08T19:20:01.040Z,5.70
2023-02-08T19:22:29.159Z,5.60
2023-02-08T19:24:57.391Z,5.50
2023-02-08T19:27:27.015Z,5.60
2023-02-08T19:29:56.222Z,5.60
2023-02-08T19:32:24.443Z,5.60
2023-02-08T19:34:52.490Z,5.50
2023-02-08T19:37:20.798Z,5.50
2023-02-08T19:39:48.982Z,5.50
2023-02-08T19:42:17.072Z,5.40
2023-02-08T19:44:46.531Z,5.30
2023-02-08T19:47:14.619Z,5.20
2023-02-08T19:49:42.840Z,5.10
2023-02-08T19:52:10.958Z,5.10
2023-02-08T19:54:39.167Z,5.00
2023-02-08T19:57:11.602Z,4.90
2023-02-08T19:59:39.762Z,4.80
2023-02-08T20:02:11.567Z,4.70
2023-02-08T20:04:39.767Z,4.70
2023-02-08T20:07:08.314Z,4.80
2023-02-08T20:09:36.665Z,4.90
2023-02-08T20:12:05.166Z,5.00
2023-02-08T20:14:34.629Z,4.90
2023-02-08T20:17:03.118Z,4.90
2023-02-08T20:19:32.617Z,4.80
2023-02-08T20:22:00.731Z,4.80
2023-02-08T20:24:28.795Z,4.70
2023-02-08T20:26:56.907Z,4.50
2023-02-08T20:29:26.295Z,4.50
2023-02-08T20:31:55.808Z,4.40
2023-02-08T20:34:23.962Z,4.20
2023-02-08T20:37:06.483Z,4.30
2023-02-08T20:39:36.069Z,4.40
2023-02-08T20:42:04.377Z,4.40
2023-02-08T20:44:32.653Z,4.40
2023-02-08T20:47:01.147Z,4.40
2023-02-08T20:49:32.044Z,4.40
2023-02-08T20:52:01.677Z,4.40
2023-02-08T20:54:29.944Z,4.40
2023-02-08T20:56:58.229Z,4.30
2023-02-08T20:59:26.312Z,4.30
2023-02-08T21:01:54.427Z,4.30
2023-02-08T21:04:23.861Z,4.20
2023-02-08T21:06:52.229Z,4.20
2023-02-08T21:09:22.030Z,4.20
2023-02-08T21:11:50.977Z,4.20
2023-02-08T21:14:20.952Z,4.30
2023-02-08T21:16:51.066Z,4.30
2023-02-08T21:19:20.436Z,4.20
2023-02-08T21:21:51.226Z,4.20
2023-02-08T21:24:19.484Z,4.20
2023-02-08T21:26:48.862Z,4.30
2023-02-08T21:29:17.034Z,4.20
2023-02-08T21:31:45.302Z,3.90
2023-02-08T21:34:13.970Z,3.80
2023-02-08T21:36:42.154Z,3.60
2023-02-08T21:39:10.329Z,3.30
2023-02-08T21:41:38.383Z,3.10
2023-02-08T21:44:09.320Z,3.10
2023-02-08T21:46:37.421Z,3.10
2023-02-08T21:49:23.184Z,3.10
2023-02-08T21:52:08.987Z,2.90
2023-02-08T21:54:44.167Z,2.60
2023-02-08T21:57:14.365Z,2.20
2023-02-08T21:59:44.233Z,2.10
2023-02-08T22:02:14.327Z,2.10
2023-02-08T22:04:46.575Z,2.10
2023-02-08T22:07:15.026Z,2.20
2023-02-08T22:09:43.207Z,2.20
2023-02-08T22:12:13.854Z,2.20
2023-02-08T22:14:41.985Z,2.20
2023-02-08T22:17:11.482Z,2.20
2023-02-08T22:19:40.162Z,2.30
2023-02-08T22:22:08.647Z,2.40
2023-02-08T22:24:37.167Z,2.50
2023-02-08T22:27:05.343Z,2.70
2023-02-08T22:29:33.694Z,2.60
2023-02-08T22:32:02.097Z,2.60
2023-02-08T22:34:31.652Z,2.60
2023-02-08T22:37:03.681Z,2.60
2023-02-08T22:39:32.879Z,2.60
2023-02-08T22:42:01.005Z,2.60
2023-02-08T22:44:29.138Z,2.60
2023-02-08T22:46:57.890Z,2.60
2023-02-08T22:49:26.064Z,2.70
2023-02-08T22:51:55.647Z,2.70
2023-02-08T22:54:23.849Z,2.60
2023-02-08T22:56:52.144Z,2.50
2023-02-08T22:59:20.332Z,2.50
2023-02-08T23:01:49.499Z,2.50
2023-02-08T23:04:17.652Z,2.50
2023-02-08T23:06:45.793Z,2.60
2023-02-08T23:09:15.253Z,2.60
2023-02-08T23:11:43.401Z,2.70
2023-02-08T23:14:11.539Z,2.70
2023-02-08T23:16:39.938Z,2.80
2023-02-08T23:19:08.085Z,2.70
2023-02-08T23:21:36.525Z,2.70
2023-02-08T23:24:06.195Z,2.70
2023-02-08T23:26:35.620Z,2.70
2023-02-08T23:29:04.080Z,2.70
2023-02-08T23:31:32.325Z,2.80
2023-02-08T23:34:00.618Z,2.60
2023-02-08T23:36:28.753Z,2.50
2023-02-08T23:38:56.916Z,2.30
2023-02-08T23:41:25.125Z,2.00
2023-02-08T23:43:54.549Z,2.00
2023-02-08T23:46:23.285Z,2.10
2023-02-08T23:48:51.697Z,2.10
2023-02-08T23:51:21.467Z,2.10
2023-02-08T23:53:49.922Z,2.10
2023-02-08T23:56:19.638Z,2.10
2023-02-08T23:58:48.340Z,2.10
